createdAt,value
2018-11-04T19:14:15.882Z,33.83
2018-11-04T19:16:44.602Z,42.30
2018-11-04T19:19:12.784Z,40.33
2018-11-04T19:21:40.979Z,37.63
2018-11-04T19:24:09.159Z,41.87
2018-11-04T19:26:37.301Z,46.30
2018-11-04T19:29:05.475Z,41.97
2018-11-04T19:31:33.642Z,48.17
2018-11-04T19:34:01.777Z,48.23
2018-11-04T19:36:29.918Z,36.77
2018-11-04T19:38:58.083Z,40.30
2018-11-04T19:41:26.243Z,42.60
2018-11-04T19:43:54.447Z,43.30
2018-11-04T19:46:22.587Z,42.20
2018-11-04T19:48:50.892Z,38.40
2018-11-04T19:51:18.964Z,43.63
2018-11-04T19:53:47.187Z,46.13
2018-11-04T19:56:15.351Z,44.03
2018-11-04T19:58:43.489Z,47.23
2018-11-04T20:01:11.618Z,44.00
2018-11-04T20:03:39.975Z,42.13
2018-11-04T20:06:08.179Z,48.37
2018-11-04T20:08:36.263Z,40.47
2018-11-04T20:11:04.406Z,42.07
2018-11-04T20:13:37.875Z,40.70
2018-11-04T20:16:05.990Z,37.90
2018-11-04T20:18:39.403Z,38.67
2018-11-04T20:21:07.544Z,36.40
2018-11-04T20:23:35.671Z,41.67
2018-11-04T20:26:05.982Z,41.27
2018-11-04T20:28:34.106Z,53.50
2018-11-04T20:31:02.273Z,46.23
2018-11-04T20:33:30.415Z,60.03
2018-11-04T20:35:58.579Z,53.17
2018-11-04T20:38:32.023Z,45.30
2018-11-04T20:41:05.719Z,45.10
2018-11-04T20:43:33.861Z,58.43
2018-11-04T20:46:02.026Z,53.20
2018-11-04T20:48:36.954Z,50.43
2018-11-04T20:51:06.567Z,52.80
2018-11-04T20:53:35.138Z,51.67
2018-11-04T20:56:08.638Z,48.97
2018-11-04T20:58:36.811Z,49.23
2018-11-04T21:01:05.063Z,55.37
2018-11-04T21:03:33.297Z,46.93
2018-11-04T21:06:01.468Z,56.40
2018-11-04T21:08:30.996Z,54.47
2018-11-04T21:10:59.102Z,48.07
2018-11-04T21:13:27.774Z,49.27
2018-11-04T21:15:56.167Z,53.70
2018-11-04T21:18:24.266Z,47.70
2018-11-04T21:20:54.035Z,49.80
2018-11-04T21:23:22.727Z,54.23
2018-11-04T21:25:51.005Z,48.13
2018-11-04T21:28:19.219Z,49.73
2018-11-04T21:30:47.238Z,48.90
2018-11-04T21:33:15.456Z,46.30
2018-11-04T21:35:43.637Z,48.57
2018-11-04T21:38:11.805Z,48.67
2018-11-04T21:40:39.958Z,48.47
2018-11-04T21:43:08.376Z,53.33
2018-11-04T21:45:36.370Z,47.97
2018-11-04T21:48:04.522Z,50.63
2018-11-04T21:50:32.695Z,47.60
2018-11-04T21:53:00.851Z,51.73
2018-11-04T21:55:29.113Z,52.60
2018-11-04T21:57:57.151Z,55.07
2018-11-04T22:00:25.303Z,51.30
2018-11-04T22:02:53.640Z,57.77
2018-11-04T22:05:21.582Z,52.77
2018-11-04T22:07:49.742Z,88.77
2018-11-04T22:10:17.881Z,68.80
2018-11-04T22:12:46.131Z,65.77
2018-11-04T22:15:14.282Z,59.50
2018-11-04T22:17:42.776Z,61.17
2018-11-04T22:20:12.172Z,66.40
2018-11-04T22:22:40.385Z,65.37
2018-11-04T22:25:09.303Z,57.07
2018-11-04T22:27:37.449Z,56.67
2018-11-04T22:30:06.762Z,67.33
2018-11-04T22:32:35.009Z,63.47
2018-11-04T22:35:03.157Z,61.90
2018-11-04T22:37:31.311Z,61.03
2018-11-04T22:39:59.462Z,56.03
2018-11-04T22:42:27.682Z,47.37
2018-11-04T22:44:55.749Z,51.50
2018-11-04T22:47:23.898Z,52.87
2018-11-04T22:49:52.214Z,51.13
2018-11-04T22:52:20.397Z,46.10
2018-11-04T22:54:48.542Z,57.67
2018-11-04T22:57:16.701Z,54.80
2018-11-04T22:59:44.850Z,48.13
2018-11-04T23:02:12.995Z,51.93
2018-11-04T23:04:46.606Z,51.77
2018-11-04T23:07:14.762Z,57.10
2018-11-04T23:09:42.921Z,62.20
2018-11-04T23:12:11.087Z,61.60
2018-11-04T23:14:39.222Z,70.77
2018-11-04T23:17:07.382Z,68.50
2018-11-04T23:19:35.526Z,67.73
2018-11-04T23:22:03.674Z,83.23
2018-11-04T23:24:31.809Z,68.47
2018-11-04T23:27:00.094Z,61.33
2018-11-04T23:29:28.159Z,68.07
2018-11-04T23:31:56.323Z,75.30
2018-11-04T23:34:24.458Z,73.97
2018-11-04T23:36:52.594Z,63.53
2018-11-04T23:39:20.751Z,64.60
2018-11-04T23:41:48.896Z,65.73
2018-11-04T23:44:17.039Z,68.70
2018-11-04T23:46:45.186Z,65.63
2018-11-04T23:49:13.311Z,73.00
2018-11-04T23:51:41.487Z,70.77
2018-11-04T23:54:09.927Z,68.97
2018-11-04T23:56:38.075Z,73.17
2018-11-04T23:59:06.210Z,63.57
